createdAt,value
2023-04-09T00:00:37.456Z,22.98
2023-04-09T00:03:31.403Z,23.38
2023-04-09T00:06:18.509Z,20.58
2023-04-09T00:09:12.483Z,21.63
2023-04-09T00:12:06.267Z,23.75
2023-04-09T00:14:53.457Z,22.42
2023-04-09T00:17:47.280Z,23.95
2023-04-09T00:20:41.246Z,26.90
2023-04-09T00:23:28.382Z,26.05
2023-04-09T00:26:22.406Z,25.80
2023-04-09T00:29:16.304Z,23.92
2023-04-09T00:32:03.502Z,24.92
2023-04-09T00:34:57.355Z,29.48
2023-04-09T00:37:44.473Z,25.00
2023-04-09T00:40:38.323Z,25.67
2023-04-09T00:43:32.301Z,29.08
2023-04-09T00:46:19.535Z,25.77
2023-04-09T00:49:13.330Z,26.70
2023-04-09T00:52:07.344Z,26.60
2023-04-09T00:55:02.407Z,25.65
2023-04-09T00:57:49.548Z,28.05
2023-04-09T01:00:43.372Z,27.30
2023-04-09T01:03:37.460Z,26.05
2023-04-09T01:06:51.391Z,33.30
2023-04-09T01:10:01.372Z,32.13
2023-04-09T01:13:07.296Z,30.13
2023-04-09T01:16:04.420Z,26.67
2023-04-09T01:18:59.791Z,28.98
2023-04-09T01:21:54.373Z,24.55
2023-04-09T01:25:21.353Z,27.55
2023-04-09T01:28:39.377Z,26.27
2023-04-09T01:31:42.360Z,23.67
2023-04-09T01:37:32.356Z,29.00
2023-04-09T01:40:19.707Z,26.02
2023-04-09T01:43:15.413Z,25.38
2023-04-09T01:46:05.646Z,23.40
2023-04-09T01:48:59.427Z,25.75
2023-04-09T01:51:48.285Z,26.23
2023-04-09T01:54:42.430Z,27.05
2023-04-09T01:57:30.688Z,22.92
2023-04-09T02:00:24.379Z,22.27
2023-04-09T02:03:21.020Z,23.83
2023-04-09T02:06:22.388Z,23.27
2023-04-09T02:09:16.441Z,23.05
2023-04-09T02:12:12.593Z,22.73
2023-04-09T02:15:08.477Z,20.48
2023-04-09T02:18:02.473Z,23.65
2023-04-09T02:20:56.499Z,20.77
2023-04-09T02:23:43.574Z,18.30
2023-04-09T02:26:37.460Z,19.17
2023-04-09T02:29:24.584Z,23.88
2023-04-09T02:32:18.516Z,20.70
2023-04-09T02:35:12.450Z,16.60
2023-04-09T02:37:59.638Z,22.75
2023-04-09T02:40:53.524Z,21.05
2023-04-09T02:44:24.824Z,19.23
2023-04-09T02:47:11.884Z,20.77
2023-04-09T02:50:05.829Z,21.60
2023-04-09T02:52:53.009Z,22.88
2023-04-09T02:55:46.811Z,26.75
2023-04-09T02:58:33.991Z,17.80
2023-04-09T03:01:27.880Z,20.55
2023-04-09T03:04:15.059Z,17.83
2023-04-09T03:07:08.964Z,22.83
2023-04-09T03:09:56.117Z,17.92
2023-04-09T03:12:50.832Z,20.20
2023-04-09T03:15:38.021Z,18.98
2023-04-09T03:18:31.906Z,22.30
2023-04-09T03:21:18.986Z,18.35
2023-04-09T03:24:12.871Z,19.30
2023-04-09T03:27:06.933Z,18.13
2023-04-09T03:29:56.536Z,18.67
2023-04-09T03:32:50.000Z,23.42
2023-04-09T03:35:43.928Z,22.88
2023-04-09T03:38:37.891Z,18.92
2023-04-09T03:41:26.704Z,20.10
2023-04-09T03:44:19.922Z,17.98
2023-04-09T03:47:07.963Z,20.63
2023-04-09T03:50:07.931Z,19.17
2023-04-09T03:52:55.158Z,20.88
2023-04-09T03:55:48.986Z,18.60
2023-04-09T03:58:42.888Z,19.38
2023-04-09T04:01:29.921Z,19.50
2023-04-09T04:04:24.234Z,21.25
2023-04-09T04:07:17.890Z,20.10
2023-04-09T04:10:08.428Z,17.15
2023-04-09T04:13:01.965Z,20.65
2023-04-09T04:15:55.947Z,19.75
2023-04-09T04:18:43.079Z,22.48
2023-04-09T04:21:37.267Z,22.85
2023-04-09T04:24:24.549Z,17.25
2023-04-09T04:27:17.948Z,20.35
2023-04-09T04:30:11.984Z,20.55
2023-04-09T04:32:59.182Z,22.25
2023-04-09T04:35:53.010Z,20.58
2023-04-09T04:38:47.124Z,20.90
2023-04-09T04:41:41.026Z,25.00
2023-04-09T04:44:28.142Z,25.42
2023-04-09T04:47:22.003Z,21.45
2023-04-09T04:50:16.022Z,21.38
2023-04-09T04:53:03.136Z,22.95
2023-04-09T04:55:57.021Z,18.55
2023-04-09T04:58:51.202Z,21.42
2023-04-09T05:01:38.586Z,23.92
2023-04-09T05:04:32.013Z,19.65
2023-04-09T05:07:19.140Z,23.30
2023-04-09T05:10:14.082Z,23.45
2023-04-09T05:13:08.123Z,26.15
2023-04-09T05:15:55.242Z,21.77
2023-04-09T05:18:49.024Z,26.15
2023-04-09T05:21:36.116Z,24.45
2023-04-09T05:24:30.113Z,23.42
2023-04-09T05:27:26.154Z,22.58
2023-04-09T05:30:13.478Z,22.02
2023-04-09T05:33:07.103Z,19.88
2023-04-09T05:35:54.290Z,20.23
2023-04-09T05:38:48.088Z,21.38
2023-04-09T05:41:37.279Z,18.02
2023-04-09T05:44:31.057Z,19.15
2023-04-09T05:47:18.132Z,18.15
2023-04-09T05:50:13.098Z,18.42
2023-04-09T05:53:00.222Z,20.42
2023-04-09T05:55:56.140Z,19.70
2023-04-09T05:58:43.312Z,22.40
2023-04-09T06:01:37.214Z,19.15
2023-04-09T06:04:24.464Z,15.05
2023-04-09T06:07:18.166Z,24.88
2023-04-09T06:10:12.142Z,18.63
2023-04-09T06:13:06.160Z,18.05
2023-04-09T06:15:53.364Z,22.20
2023-04-09T06:18:49.168Z,20.15
2023-04-09T06:21:36.569Z,21.02
2023-04-09T06:24:30.141Z,29.55
2023-04-09T06:27:25.147Z,27.30
2023-04-09T06:30:12.566Z,28.08
2023-04-09T06:33:06.228Z,32.08
2023-04-09T06:36:00.301Z,32.15
2023-04-09T06:38:47.468Z,42.28
2023-04-09T06:41:41.165Z,33.92
2023-04-09T06:44:35.186Z,31.88
2023-04-09T06:47:22.322Z,40.65
2023-04-09T06:50:16.379Z,41.65
2023-04-09T06:53:03.555Z,41.85
2023-04-09T06:55:58.189Z,38.33
2023-04-09T06:58:52.191Z,38.15
2023-04-09T07:01:47.282Z,36.05
2023-04-09T07:04:34.718Z,38.88
2023-04-09T07:07:29.172Z,34.20
2023-04-09T07:10:16.439Z,32.45
2023-04-09T07:13:10.220Z,29.83
2023-04-09T07:15:57.334Z,30.35
2023-04-09T07:18:51.207Z,33.30
2023-04-09T07:21:45.235Z,33.13
2023-04-09T07:24:39.259Z,32.75
2023-04-09T07:27:27.820Z,32.97
2023-04-09T07:30:22.293Z,31.55
2023-04-09T07:33:16.276Z,29.00
2023-04-09T07:36:10.380Z,27.35
2023-04-09T07:39:04.307Z,24.23
2023-04-09T07:41:58.282Z,25.33
2023-04-09T07:44:45.333Z,23.58
2023-04-09T07:47:39.299Z,22.67
2023-04-09T07:50:27.016Z,22.88
2023-04-09T07:53:21.331Z,26.70
2023-04-09T07:56:08.359Z,25.52
2023-04-09T07:59:02.429Z,26.70
2023-04-09T08:01:49.898Z,23.60
2023-04-09T08:04:43.476Z,20.63
2023-04-09T08:07:30.927Z,21.10
2023-04-09T08:10:24.391Z,24.55
2023-04-09T08:13:12.037Z,18.63
2023-04-09T08:16:09.609Z,20.42
2023-04-09T08:18:57.287Z,17.58
2023-04-09T08:21:51.394Z,18.55
2023-04-09T08:24:46.318Z,14.43
2023-04-09T08:27:34.718Z,16.92
2023-04-09T08:30:28.357Z,17.15
2023-04-09T08:33:15.536Z,14.00
2023-04-09T08:36:09.554Z,13.70
2023-04-09T08:38:56.729Z,16.65
2023-04-09T08:41:50.403Z,18.00
2023-04-09T08:44:44.382Z,19.65
2023-04-09T08:47:40.411Z,16.67
2023-04-09T08:50:27.562Z,17.08
2023-04-09T08:53:23.376Z,16.50
2023-04-09T08:56:10.476Z,16.35
2023-04-09T08:59:04.368Z,15.15
2023-04-09T09:02:14.473Z,25.02
2023-04-09T09:05:01.695Z,24.58
2023-04-09T09:08:01.408Z,18.15
2023-04-09T09:10:55.422Z,17.58
2023-04-09T09:13:49.423Z,18.52
2023-04-09T09:16:49.419Z,19.33
2023-04-09T09:19:43.415Z,17.33
2023-04-09T09:22:55.132Z,20.63
2023-04-09T09:25:50.411Z,20.83
2023-04-09T09:28:37.747Z,18.10
2023-04-09T09:31:32.457Z,19.20
2023-04-09T09:34:28.457Z,19.88
2023-04-09T09:37:34.301Z,19.38
2023-04-09T09:40:35.501Z,16.33
2023-04-09T09:43:47.781Z,14.55
2023-04-09T09:46:43.456Z,14.70
2023-04-09T09:49:37.499Z,18.02
2023-04-09T09:52:27.078Z,17.17
2023-04-09T09:55:22.490Z,15.43
2023-04-09T09:58:17.201Z,14.77
2023-04-09T10:01:17.486Z,18.85
2023-04-09T10:04:07.103Z,22.15
2023-04-09T10:07:02.526Z,20.60
2023-04-09T10:09:51.972Z,18.55
2023-04-09T10:12:48.573Z,20.55
2023-04-09T10:15:36.024Z,22.85
2023-04-09T10:18:30.521Z,24.80
2023-04-09T10:21:47.804Z,21.30
2023-04-09T10:24:42.519Z,20.50
2023-04-09T10:27:36.563Z,25.40
2023-04-09T10:30:36.780Z,25.73
2023-04-09T10:33:33.521Z,20.98
2023-04-09T10:36:28.662Z,20.35
2023-04-09T10:39:15.825Z,22.42
2023-04-09T10:42:18.538Z,22.27
2023-04-09T10:45:23.605Z,21.80
2023-04-09T10:48:14.258Z,27.17
2023-04-09T10:51:12.576Z,23.05
2023-04-09T10:53:59.657Z,24.45
2023-04-09T10:57:13.560Z,26.38
2023-04-09T11:00:00.784Z,23.42
2023-04-09T11:03:10.703Z,22.10
2023-04-09T11:06:08.581Z,22.50
2023-04-09T11:09:02.976Z,21.33
2023-04-09T11:12:00.612Z,21.15
2023-04-09T11:14:47.694Z,19.15
2023-04-09T11:17:43.688Z,19.27
2023-04-09T11:20:31.285Z,23.05
2023-04-09T11:23:25.585Z,22.63
2023-04-09T11:26:19.621Z,23.95
2023-04-09T11:29:16.604Z,24.55
2023-04-09T11:32:07.482Z,17.35
2023-04-09T11:35:00.626Z,23.40
2023-04-09T11:37:56.680Z,19.75
2023-04-09T11:40:51.585Z,20.25
2023-04-09T11:43:45.658Z,25.02
2023-04-09T11:46:33.443Z,18.40
2023-04-09T11:49:28.628Z,20.90
2023-04-09T11:52:18.483Z,17.05
2023-04-09T11:55:12.656Z,18.50
2023-04-09T11:58:01.337Z,19.15
2023-04-09T12:00:55.671Z,16.08
2023-04-09T12:03:42.917Z,17.15
2023-04-09T12:06:36.654Z,15.73
2023-04-09T12:09:23.713Z,14.10
2023-04-09T12:12:17.713Z,13.05
2023-04-09T12:15:20.730Z,16.02
2023-04-09T12:18:18.709Z,14.45
2023-04-09T12:21:06.291Z,13.77
2023-04-09T12:24:00.694Z,11.75
2023-04-09T12:26:54.702Z,14.65
2023-04-09T12:29:49.054Z,16.38
2023-04-09T12:32:42.754Z,15.57
2023-04-09T12:35:36.789Z,14.23
2023-04-09T12:38:30.773Z,13.70
2023-04-09T12:41:24.737Z,18.33
2023-04-09T12:44:11.799Z,14.18
2023-04-09T12:47:05.736Z,15.93
2023-04-09T12:49:53.968Z,15.10
2023-04-09T12:52:48.051Z,15.20
2023-04-09T12:55:35.124Z,14.07
2023-04-09T12:58:28.730Z,15.63
2023-04-09T13:01:15.878Z,14.40
2023-04-09T13:04:09.874Z,11.73
2023-04-09T13:06:57.028Z,12.25
2023-04-09T13:09:51.789Z,14.05
2023-04-09T13:12:38.940Z,13.27
2023-04-09T13:15:32.771Z,15.40
2023-04-09T13:18:26.787Z,11.07
2023-04-09T13:21:24.836Z,12.27
2023-04-09T13:24:11.998Z,12.88
2023-04-09T13:27:05.776Z,19.23
2023-04-09T13:29:52.847Z,16.48
2023-04-09T13:32:46.817Z,14.60
2023-04-09T13:35:40.891Z,12.27
2023-04-09T13:38:28.141Z,11.75
2023-04-09T13:41:21.915Z,11.05
2023-04-09T13:44:09.084Z,15.23
2023-04-09T13:47:02.822Z,13.43
2023-04-09T13:49:51.591Z,15.00
2023-04-09T13:52:44.876Z,17.30
2023-04-09T13:55:32.047Z,15.43
2023-04-09T13:58:26.947Z,12.68
2023-04-09T14:01:20.873Z,12.88
2023-04-09T14:04:14.991Z,11.85
2023-04-09T14:07:02.163Z,13.18
2023-04-09T14:09:57.899Z,12.60
2023-04-09T14:12:44.999Z,14.38
2023-04-09T14:15:38.926Z,14.50
2023-04-09T14:18:26.111Z,13.40
2023-04-09T14:21:19.870Z,12.48
2023-04-09T14:24:07.690Z,14.13
2023-04-09T14:27:00.951Z,15.25
2023-04-09T14:29:48.077Z,14.90
2023-04-09T14:32:41.918Z,11.43
2023-04-09T14:35:29.188Z,9.43
2023-04-09T14:38:23.948Z,7.82
2023-04-09T14:41:17.923Z,15.48
2023-04-09T14:44:05.169Z,13.00
2023-04-09T14:47:01.031Z,13.73
2023-04-09T14:49:48.186Z,12.80
2023-04-09T14:52:41.939Z,11.13
2023-04-09T14:55:35.965Z,11.77
2023-04-09T14:58:36.001Z,9.80
2023-04-09T15:01:31.823Z,11.10
2023-04-09T15:04:27.238Z,12.57
2023-04-09T15:07:14.355Z,10.45
2023-04-09T15:10:07.933Z,10.07
2023-04-09T15:12:55.293Z,10.20
2023-04-09T15:15:50.988Z,10.23
2023-04-09T15:18:38.045Z,11.93
2023-04-09T15:21:32.981Z,9.38
2023-04-09T15:24:26.995Z,10.52
2023-04-09T15:27:14.085Z,9.93
2023-04-09T15:30:07.968Z,10.68
2023-04-09T15:33:08.110Z,8.23
2023-04-09T15:35:55.865Z,10.30
2023-04-09T15:38:49.107Z,8.20
2023-04-09T15:41:43.074Z,8.18
2023-04-09T15:44:30.270Z,9.32
2023-04-09T15:47:24.092Z,9.52
2023-04-09T15:50:18.074Z,9.65
2023-04-09T15:53:12.063Z,9.73
2023-04-09T15:55:59.362Z,9.75
2023-04-09T15:58:53.278Z,10.80
2023-04-09T16:01:40.683Z,9.60
2023-04-09T16:04:34.114Z,8.38
2023-04-09T16:07:28.091Z,10.80
2023-04-09T16:10:15.689Z,9.07
2023-04-09T16:13:10.132Z,7.85
2023-04-09T16:16:04.095Z,10.35
2023-04-09T16:18:58.079Z,9.90
2023-04-09T16:21:45.689Z,7.90
2023-04-09T16:24:39.118Z,7.93
2023-04-09T16:27:26.235Z,9.40
2023-04-09T16:30:20.127Z,9.15
2023-04-09T16:33:10.364Z,9.30
2023-04-09T16:36:04.159Z,7.35
2023-04-09T16:38:58.125Z,8.35
2023-04-09T16:41:45.331Z,8.77
2023-04-09T16:44:39.175Z,7.43
2023-04-09T16:47:26.209Z,7.20
2023-04-09T16:50:20.151Z,7.35
2023-04-09T16:53:07.927Z,8.55
2023-04-09T16:56:01.181Z,6.43
2023-04-09T16:58:48.428Z,8.07
2023-04-09T17:01:42.239Z,10.75
2023-04-09T17:04:29.748Z,10.98
2023-04-09T17:07:23.186Z,8.43
2023-04-09T17:10:10.641Z,9.68
2023-04-09T17:13:04.136Z,8.15
2023-04-09T17:15:59.179Z,11.13
2023-04-09T17:18:53.389Z,9.95
2023-04-09T17:21:41.068Z,9.80
2023-04-09T17:24:34.191Z,10.85
2023-04-09T17:27:21.786Z,10.88
2023-04-09T17:30:16.222Z,9.18
2023-04-09T17:33:10.205Z,10.85
2023-04-09T17:35:57.689Z,9.23
2023-04-09T17:38:52.529Z,12.15
2023-04-09T17:41:46.188Z,9.02
2023-04-09T17:44:42.452Z,10.23
2023-04-09T17:47:29.624Z,9.80
2023-04-09T17:50:23.258Z,8.82
2023-04-09T17:53:10.384Z,9.40
2023-04-09T17:56:04.318Z,10.38
2023-04-09T17:58:58.299Z,8.90
2023-04-09T18:01:45.510Z,8.35
2023-04-09T18:04:41.412Z,7.72
2023-04-09T18:07:39.284Z,8.40
2023-04-09T18:10:27.054Z,7.55
2023-04-09T18:13:20.265Z,8.10
2023-04-09T18:16:18.545Z,9.60
2023-04-09T18:19:06.716Z,9.68
2023-04-09T18:22:00.557Z,8.38
2023-04-09T18:24:47.687Z,9.02
2023-04-09T18:27:41.648Z,10.05
2023-04-09T18:30:28.745Z,9.10
2023-04-09T18:33:22.270Z,7.75
2023-04-09T18:36:09.465Z,9.82
2023-04-09T18:39:04.476Z,9.35
2023-04-09T18:41:51.599Z,9.57
2023-04-09T18:44:45.396Z,8.10
2023-04-09T18:47:39.317Z,9.20
2023-04-09T18:50:33.330Z,9.80
2023-04-09T18:53:20.408Z,9.32
2023-04-09T18:56:14.357Z,9.75
2023-04-09T18:59:01.468Z,10.02
2023-04-09T19:01:55.518Z,8.48
2023-04-09T19:04:42.894Z,9.50
2023-04-09T19:07:36.369Z,9.63
2023-04-09T19:10:23.419Z,8.40
2023-04-09T19:13:17.373Z,8.98
2023-04-09T19:16:06.064Z,8.32
2023-04-09T19:19:00.415Z,9.15
2023-04-09T19:21:54.381Z,8.75
2023-04-09T19:24:44.424Z,15.95
2023-04-09T19:27:38.516Z,16.88
2023-04-09T19:30:25.756Z,20.35
2023-04-09T19:33:19.440Z,16.98
2023-04-09T19:36:08.183Z,16.67
2023-04-09T19:39:01.560Z,14.05
2023-04-09T19:41:48.734Z,13.23
2023-04-09T19:44:42.546Z,12.70
2023-04-09T19:47:29.701Z,12.27
2023-04-09T19:50:23.710Z,10.65
2023-04-09T19:53:10.909Z,10.90
2023-04-09T19:56:04.689Z,12.30
2023-04-09T19:58:52.076Z,11.57
2023-04-09T20:01:46.607Z,12.05
2023-04-09T20:04:40.724Z,12.55
2023-04-09T20:07:27.989Z,12.13
2023-04-09T20:10:22.390Z,11.02
2023-04-09T20:13:09.585Z,11.63
2023-04-09T20:16:03.523Z,10.93
2023-04-09T20:18:50.652Z,11.43
2023-04-09T20:21:44.503Z,11.85
2023-04-09T20:24:32.210Z,12.13
2023-04-09T20:27:25.495Z,12.52
2023-04-09T20:30:12.751Z,8.20
2023-04-09T20:33:06.739Z,11.70
2023-04-09T20:36:00.858Z,11.65
2023-04-09T20:38:55.066Z,12.48
2023-04-09T20:41:42.505Z,11.02
2023-04-09T20:44:36.539Z,9.57
2023-04-09T20:47:23.790Z,10.70
2023-04-09T20:50:17.475Z,11.38
2023-04-09T20:53:04.551Z,11.07
2023-04-09T20:55:59.563Z,12.77
2023-04-09T20:58:46.689Z,12.15
2023-04-09T21:01:40.679Z,10.93
2023-04-09T21:04:28.306Z,13.07
2023-04-09T21:07:22.622Z,12.15
2023-04-09T21:10:09.877Z,11.77
2023-04-09T21:13:03.780Z,10.07
2023-04-09T21:15:51.281Z,11.43
2023-04-09T21:18:44.817Z,12.38
2023-04-09T21:21:31.886Z,11.18
2023-04-09T21:24:25.588Z,9.50
2023-04-09T21:27:13.591Z,10.05
2023-04-09T21:30:14.785Z,11.30
2023-04-09T21:33:03.674Z,11.68
2023-04-09T21:36:00.639Z,10.57
2023-04-09T21:38:54.813Z,11.90
2023-04-09T21:41:42.204Z,13.05
2023-04-09T21:44:35.751Z,12.57
2023-04-09T21:47:23.696Z,13.02
2023-04-09T21:50:17.633Z,11.27
2023-04-09T21:53:04.804Z,13.27
2023-04-09T21:55:58.655Z,10.57
2023-04-09T21:58:45.808Z,14.02
2023-04-09T22:01:40.988Z,11.73
2023-04-09T22:04:28.640Z,11.90
2023-04-09T22:07:22.906Z,11.57
2023-04-09T22:10:10.394Z,11.68
2023-04-09T22:13:04.707Z,12.32
2023-04-09T22:15:52.729Z,10.05
2023-04-09T22:18:46.653Z,11.27
2023-04-09T22:21:33.792Z,13.95
2023-04-09T22:24:33.661Z,14.32
2023-04-09T22:27:20.778Z,12.15
2023-04-09T22:30:14.667Z,14.02
2023-04-09T22:33:08.777Z,14.13
2023-04-09T22:35:56.197Z,12.52
2023-04-09T22:38:49.947Z,13.93
2023-04-09T22:41:37.128Z,15.68
2023-04-09T22:44:31.725Z,13.57
2023-04-09T22:47:25.961Z,12.65
2023-04-09T22:50:13.963Z,14.10
2023-04-09T22:53:07.726Z,17.00
2023-04-09T22:55:57.798Z,15.38
2023-04-09T22:58:52.062Z,18.15
2023-04-09T23:01:40.246Z,15.55
2023-04-09T23:04:33.769Z,17.10
2023-04-09T23:07:21.169Z,15.48
2023-04-09T23:10:14.707Z,14.48
2023-04-09T23:13:08.698Z,14.00
2023-04-09T23:15:56.062Z,14.25
2023-04-09T23:18:50.729Z,14.30
2023-04-09T23:21:37.813Z,14.93
2023-04-09T23:24:31.770Z,15.98
2023-04-09T23:27:19.184Z,16.85
2023-04-09T23:30:13.742Z,13.93
2023-04-09T23:33:01.009Z,15.73
2023-04-09T23:35:54.871Z,15.57
2023-04-09T23:38:43.771Z,15.35
2023-04-09T23:41:38.034Z,14.02
2023-04-09T23:44:25.296Z,14.80
2023-04-09T23:47:19.826Z,14.02
2023-04-09T23:50:08.406Z,15.48
2023-04-09T23:53:05.766Z,15.43
2023-04-09T23:55:59.867Z,13.80
2023-04-09T23:58:53.829Z,13.30
